createdAt,value
2019-04-16T00:02:19.468Z,15.77
2019-04-16T00:05:08.019Z,14.23
2019-04-16T00:07:46.035Z,14.40
2019-04-16T00:10:37.865Z,14.60
2019-04-16T00:13:13.996Z,14.87
2019-04-16T00:15:50.855Z,15.90
2019-04-16T00:18:20.466Z,13.77
2019-04-16T00:21:14.462Z,14.03
2019-04-16T00:24:02.982Z,15.70
2019-04-16T00:26:32.483Z,13.97
2019-04-16T00:29:02.903Z,16.00
2019-04-16T00:31:34.337Z,14.87
2019-04-16T00:34:04.248Z,16.27
2019-04-16T00:36:33.805Z,16.40
2019-04-16T00:39:04.131Z,16.83
2019-04-16T00:41:34.104Z,14.23
2019-04-16T00:44:03.377Z,13.37
2019-04-16T00:46:32.987Z,15.63
2019-04-16T00:49:02.527Z,14.20
2019-04-16T00:51:31.815Z,16.30
2019-04-16T00:54:01.176Z,13.20
2019-04-16T00:56:33.417Z,16.67
2019-04-16T00:59:03.427Z,18.23
2019-04-16T01:01:33.239Z,15.50
2019-04-16T01:04:03.166Z,16.00
2019-04-16T01:06:33.032Z,16.77
2019-04-16T01:09:02.322Z,14.40
2019-04-16T01:11:31.839Z,14.77
2019-04-16T01:14:01.210Z,17.87
2019-04-16T01:16:32.997Z,15.37
2019-04-16T01:19:01.753Z,18.53
2019-04-16T01:21:31.012Z,16.20
2019-04-16T01:24:00.399Z,19.03
2019-04-16T01:26:29.668Z,16.90
2019-04-16T01:29:04.587Z,14.73
2019-04-16T01:31:46.878Z,17.33
2019-04-16T01:34:24.710Z,14.20
2019-04-16T01:37:25.502Z,13.50
2019-04-16T01:39:54.195Z,13.53
2019-04-16T01:42:24.262Z,14.27
2019-04-16T01:44:53.575Z,17.13
2019-04-16T01:47:22.928Z,16.13
2019-04-16T01:49:52.211Z,15.60
2019-04-16T01:52:21.503Z,13.60
2019-04-16T01:54:54.983Z,18.10
2019-04-16T01:57:24.545Z,16.90
2019-04-16T01:59:54.228Z,18.37
2019-04-16T02:02:23.567Z,20.17
2019-04-16T02:04:52.882Z,14.43
2019-04-16T02:07:22.187Z,15.17
2019-04-16T02:09:51.736Z,19.30
2019-04-16T02:12:21.389Z,16.23
2019-04-16T02:14:51.197Z,18.43
2019-04-16T02:17:26.686Z,15.27
2019-04-16T02:19:52.683Z,15.60
2019-04-16T02:22:22.279Z,15.00
2019-04-16T02:24:51.803Z,16.97
2019-04-16T02:27:23.517Z,16.20
2019-04-16T02:29:53.702Z,19.20
2019-04-16T02:32:23.632Z,17.77
2019-04-16T02:34:53.316Z,18.40
2019-04-16T02:37:23.292Z,19.07
2019-04-16T02:39:52.789Z,16.27
2019-04-16T02:42:22.195Z,22.33
2019-04-16T02:44:51.749Z,16.43
2019-04-16T02:47:20.986Z,17.47
2019-04-16T02:49:56.388Z,18.60
2019-04-16T02:52:50.297Z,16.17
2019-04-16T02:55:33.493Z,15.97
2019-04-16T02:58:09.620Z,18.57
2019-04-16T03:00:56.573Z,19.83
2019-04-16T03:03:37.851Z,18.10
2019-04-16T03:06:07.199Z,15.63
2019-04-16T03:08:36.964Z,18.90
2019-04-16T03:11:06.847Z,23.93
2019-04-16T03:13:36.110Z,17.03
2019-04-16T03:16:24.341Z,17.00
2019-04-16T03:18:58.250Z,16.80
2019-04-16T03:21:28.209Z,15.13
2019-04-16T03:23:57.925Z,19.90
2019-04-16T03:26:27.211Z,21.37
2019-04-16T03:28:59.217Z,14.77
2019-04-16T03:31:27.785Z,20.73
2019-04-16T03:33:57.154Z,16.80
2019-04-16T03:36:29.341Z,20.33
2019-04-16T03:38:57.835Z,17.93
2019-04-16T03:41:27.377Z,16.80
2019-04-16T03:43:56.883Z,19.67
2019-04-16T03:46:26.143Z,22.47
2019-04-16T03:48:56.468Z,18.40
2019-04-16T03:51:26.109Z,20.07
2019-04-16T03:53:55.367Z,18.20
2019-04-16T03:56:27.523Z,16.40
2019-04-16T03:58:55.704Z,17.23
2019-04-16T04:01:24.971Z,17.57
2019-04-16T04:03:57.491Z,20.27
2019-04-16T04:06:25.512Z,18.60
2019-04-16T04:08:54.787Z,19.53
2019-04-16T04:11:24.339Z,17.17
2019-04-16T04:13:53.618Z,15.17
2019-04-16T04:16:22.881Z,16.03
2019-04-16T04:18:52.227Z,15.93
2019-04-16T04:21:22.646Z,19.40
2019-04-16T04:23:52.108Z,22.07
2019-04-16T04:26:21.693Z,18.00
2019-04-16T04:28:51.531Z,19.33
2019-04-16T04:31:21.912Z,18.77
2019-04-16T04:33:51.434Z,20.63
2019-04-16T04:36:22.951Z,23.97
2019-04-16T04:38:51.725Z,22.40
2019-04-16T04:41:23.034Z,19.43
2019-04-16T04:43:52.290Z,19.50
2019-04-16T04:46:21.653Z,23.27
2019-04-16T04:48:55.073Z,19.83
2019-04-16T04:51:22.556Z,27.07
2019-04-16T04:53:52.089Z,24.00
2019-04-16T04:56:21.374Z,24.50
2019-04-16T04:58:50.659Z,20.90
2019-04-16T05:01:20.304Z,21.20
2019-04-16T05:04:11.316Z,21.77
2019-04-16T05:06:41.452Z,20.53
2019-04-16T05:09:11.485Z,23.00
2019-04-16T05:11:41.376Z,22.37
2019-04-16T05:14:10.881Z,29.83
2019-04-16T05:16:40.511Z,21.83
2019-04-16T05:19:13.827Z,32.47
2019-04-16T05:21:41.265Z,24.70
2019-04-16T05:24:11.124Z,28.20
2019-04-16T05:26:40.463Z,25.47
2019-04-16T05:29:16.991Z,22.93
2019-04-16T05:31:44.419Z,18.23
2019-04-16T05:34:17.419Z,24.67
2019-04-16T05:36:47.853Z,18.70
2019-04-16T05:39:16.328Z,20.83
2019-04-16T05:41:45.758Z,24.97
2019-04-16T05:44:15.061Z,25.83
2019-04-16T05:46:48.132Z,18.37
2019-04-16T05:49:18.336Z,22.97
2019-04-16T05:51:47.923Z,21.30
2019-04-16T05:54:36.555Z,27.73
2019-04-16T05:57:06.178Z,19.23
2019-04-16T05:59:35.743Z,18.47
2019-04-16T06:02:10.301Z,20.00
2019-04-16T06:04:39.862Z,23.07
2019-04-16T06:07:09.164Z,20.33
2019-04-16T06:09:41.436Z,20.87
2019-04-16T06:12:09.991Z,25.40
2019-04-16T06:14:54.029Z,18.73
2019-04-16T06:17:51.957Z,21.97
2019-04-16T06:20:37.189Z,19.87
2019-04-16T06:23:31.955Z,20.90
2019-04-16T06:26:04.503Z,22.17
2019-04-16T06:28:55.329Z,19.47
2019-04-16T06:31:54.375Z,20.43
2019-04-16T06:34:41.515Z,20.50
2019-04-16T06:37:21.581Z,22.27
2019-04-16T06:40:09.947Z,22.20
2019-04-16T06:42:58.444Z,23.37
2019-04-16T06:45:36.514Z,25.53
2019-04-16T06:48:06.543Z,29.37
2019-04-16T06:50:53.633Z,18.23
2019-04-16T06:53:32.169Z,21.10
2019-04-16T06:56:20.592Z,19.57
2019-04-16T06:58:57.521Z,19.10
2019-04-16T07:01:46.629Z,16.63
2019-04-16T07:04:34.870Z,19.37
2019-04-16T07:07:22.562Z,17.10
2019-04-16T07:09:57.647Z,19.27
2019-04-16T07:12:30.426Z,16.47
2019-04-16T07:14:59.789Z,21.57
2019-04-16T07:17:33.730Z,23.33
2019-04-16T07:20:04.349Z,20.03
2019-04-16T07:22:32.167Z,17.47
2019-04-16T07:25:04.413Z,20.43
2019-04-16T07:27:57.692Z,16.73
2019-04-16T07:30:50.307Z,19.03
2019-04-16T07:33:37.103Z,21.33
2019-04-16T07:36:27.177Z,19.07
2019-04-16T07:39:28.272Z,17.63
2019-04-16T07:42:08.375Z,15.77
2019-04-16T07:44:55.528Z,19.07
2019-04-16T07:47:56.601Z,24.03
2019-04-16T07:50:57.715Z,25.53
2019-04-16T07:53:47.427Z,20.03
2019-04-16T07:56:26.327Z,19.83
2019-04-16T07:59:00.200Z,76.50
2019-04-16T08:01:26.868Z,21.40
2019-04-16T08:03:56.792Z,17.67
2019-04-16T08:06:27.227Z,22.73
2019-04-16T08:08:57.110Z,21.20
2019-04-16T08:11:27.518Z,26.37
2019-04-16T08:13:57.137Z,26.93
2019-04-16T08:16:26.678Z,17.53
2019-04-16T08:18:55.927Z,24.17
2019-04-16T08:21:25.202Z,21.37
2019-04-16T08:24:00.953Z,22.50
2019-04-16T08:26:30.323Z,20.63
2019-04-16T08:29:00.011Z,23.87
2019-04-16T08:31:30.443Z,25.37
2019-04-16T08:33:59.727Z,18.57
2019-04-16T08:36:29.352Z,22.23
2019-04-16T08:38:58.667Z,18.77
2019-04-16T08:41:27.951Z,19.27
2019-04-16T08:43:59.692Z,17.93
2019-04-16T08:46:28.522Z,20.73
2019-04-16T08:48:58.223Z,22.03
2019-04-16T08:51:30.997Z,19.67
2019-04-16T08:53:58.768Z,22.27
2019-04-16T08:56:28.060Z,20.27
2019-04-16T08:59:00.927Z,21.23
2019-04-16T09:01:30.701Z,17.47
2019-04-16T09:04:02.642Z,21.13
2019-04-16T09:06:31.285Z,19.03
2019-04-16T09:09:14.182Z,17.37
2019-04-16T09:11:42.891Z,22.23
2019-04-16T09:14:12.152Z,26.73
2019-04-16T09:16:58.666Z,20.23
2019-04-16T09:19:27.929Z,25.07
2019-04-16T09:21:57.191Z,22.93
2019-04-16T09:24:30.429Z,23.30
2019-04-16T09:27:18.648Z,23.23
2019-04-16T09:30:25.444Z,19.60
2019-04-16T09:33:00.735Z,19.40
2019-04-16T09:35:33.883Z,23.47
2019-04-16T09:38:22.377Z,18.13
2019-04-16T09:41:06.453Z,21.50
2019-04-16T09:43:40.289Z,18.00
2019-04-16T09:46:11.136Z,18.83
2019-04-16T09:48:40.913Z,18.77
2019-04-16T09:51:10.195Z,22.73
2019-04-16T09:53:40.284Z,21.03
2019-04-16T09:56:30.057Z,19.30
2019-04-16T09:59:03.722Z,23.23
2019-04-16T10:01:42.304Z,20.50
2019-04-16T10:04:18.467Z,22.87
2019-04-16T10:06:47.865Z,22.60
2019-04-16T10:09:21.746Z,17.43
2019-04-16T10:11:48.553Z,19.43
2019-04-16T10:14:17.874Z,19.03
2019-04-16T10:16:47.500Z,18.30
2019-04-16T10:19:17.010Z,22.30
2019-04-16T10:21:46.331Z,14.97
2019-04-16T10:24:37.796Z,20.23
2019-04-16T10:27:08.642Z,18.93
2019-04-16T10:29:38.021Z,18.37
2019-04-16T10:32:07.731Z,19.40
2019-04-16T10:34:37.323Z,18.17
2019-04-16T10:37:07.126Z,15.50
2019-04-16T10:40:05.062Z,16.20
2019-04-16T10:42:59.696Z,15.83
2019-04-16T10:45:47.969Z,18.37
2019-04-16T10:48:32.003Z,12.43
2019-04-16T10:51:29.253Z,14.07
2019-04-16T10:54:20.683Z,13.77
2019-04-16T10:57:10.268Z,16.50
2019-04-16T10:59:56.600Z,15.30
2019-04-16T11:02:40.388Z,18.23
2019-04-16T11:05:31.986Z,13.83
2019-04-16T11:08:04.282Z,11.53
2019-04-16T11:10:34.186Z,12.07
2019-04-16T11:13:05.195Z,15.83
2019-04-16T11:15:34.832Z,18.43
2019-04-16T11:18:04.188Z,17.53
2019-04-16T11:20:33.481Z,16.40
2019-04-16T11:23:03.287Z,17.60
2019-04-16T11:25:33.984Z,16.70
2019-04-16T11:28:03.734Z,17.20
2019-04-16T11:30:48.710Z,18.20
2019-04-16T11:33:17.611Z,17.73
2019-04-16T11:36:18.600Z,17.13
2019-04-16T11:38:37.443Z,17.47
2019-04-16T11:41:06.787Z,15.83
2019-04-16T11:43:37.245Z,22.20
2019-04-16T11:46:07.138Z,18.17
2019-04-16T11:48:37.583Z,17.80
2019-04-16T11:51:07.662Z,19.47
2019-04-16T11:53:37.110Z,21.83
2019-04-16T11:56:06.843Z,23.03
2019-04-16T11:58:44.044Z,21.67
2019-04-16T12:01:31.675Z,22.87
2019-04-16T12:04:19.942Z,26.03
2019-04-16T12:07:06.079Z,20.23
2019-04-16T12:09:57.708Z,25.23
2019-04-16T12:12:37.091Z,24.17
2019-04-16T12:15:16.992Z,23.23
2019-04-16T12:18:05.350Z,26.30
2019-04-16T12:20:52.089Z,24.00
2019-04-16T12:23:58.563Z,22.00
2019-04-16T12:26:56.230Z,29.27
2019-04-16T12:29:47.689Z,25.13
2019-04-16T12:32:31.900Z,26.10
2019-04-16T12:35:16.829Z,31.67
2019-04-16T12:38:03.989Z,23.40
2019-04-16T12:41:01.538Z,28.40
2019-04-16T12:43:44.308Z,30.10
2019-04-16T12:46:24.909Z,25.00
2019-04-16T12:49:16.663Z,31.73
2019-04-16T12:52:03.136Z,28.60
2019-04-16T12:54:58.248Z,24.50
2019-04-16T12:57:38.566Z,26.90
2019-04-16T13:00:26.478Z,24.67
2019-04-16T13:03:20.992Z,26.40
2019-04-16T13:06:09.546Z,28.60
2019-04-16T13:09:03.579Z,29.63
2019-04-16T13:11:45.615Z,21.23
2019-04-16T13:14:26.969Z,24.27
2019-04-16T13:17:08.955Z,18.77
2019-04-16T13:19:50.907Z,15.77
2019-04-16T13:22:21.977Z,15.63
2019-04-16T13:24:58.191Z,21.03
2019-04-16T13:27:33.041Z,15.47
2019-04-16T13:30:03.193Z,17.47
2019-04-16T13:32:32.921Z,14.53
2019-04-16T13:35:02.263Z,20.03
2019-04-16T13:37:36.960Z,14.30
2019-04-16T13:40:08.884Z,17.37
2019-04-16T13:42:38.235Z,16.50
2019-04-16T13:45:31.526Z,20.00
2019-04-16T13:48:14.481Z,16.40
2019-04-16T13:50:56.425Z,16.30
2019-04-16T13:53:50.576Z,23.00
2019-04-16T13:56:23.321Z,17.47
2019-04-16T13:59:00.725Z,22.43
2019-04-16T14:01:33.676Z,11.87
2019-04-16T14:04:02.971Z,14.63
2019-04-16T14:06:32.323Z,19.20
2019-04-16T14:09:01.892Z,12.63
2019-04-16T14:11:31.783Z,16.70
2019-04-16T14:14:01.034Z,16.70
2019-04-16T14:16:30.302Z,10.77
2019-04-16T14:19:02.561Z,17.37
2019-04-16T14:21:30.600Z,16.07
2019-04-16T14:23:59.872Z,14.97
2019-04-16T14:26:29.158Z,10.47
2019-04-16T14:28:58.427Z,14.30
2019-04-16T14:31:28.459Z,17.40
2019-04-16T14:34:03.062Z,13.70
2019-04-16T14:36:32.767Z,17.30
2019-04-16T14:39:07.823Z,11.77
2019-04-16T14:41:36.723Z,13.10
2019-04-16T14:44:10.402Z,13.07
2019-04-16T14:46:39.647Z,12.80
2019-04-16T14:49:08.941Z,13.47
2019-04-16T14:51:38.536Z,10.77
2019-04-16T14:54:16.638Z,17.93
2019-04-16T14:56:48.620Z,17.17
2019-04-16T14:59:41.264Z,15.33
2019-04-16T15:02:41.861Z,12.60
2019-04-16T15:05:16.976Z,11.60
2019-04-16T15:07:54.478Z,11.73
2019-04-16T15:10:38.915Z,12.73
2019-04-16T15:13:25.496Z,8.17
2019-04-16T15:16:13.073Z,11.50
2019-04-16T15:18:56.667Z,9.37
2019-04-16T15:21:53.768Z,14.07
2019-04-16T15:24:40.864Z,11.03
2019-04-16T15:27:36.567Z,10.93
2019-04-16T15:30:29.297Z,13.03
2019-04-16T15:33:17.903Z,9.90
2019-04-16T15:35:52.143Z,13.77
2019-04-16T15:38:49.502Z,9.57
2019-04-16T15:41:36.688Z,13.13
2019-04-16T15:44:32.146Z,12.97
2019-04-16T15:47:23.508Z,12.00
2019-04-16T15:50:26.911Z,13.63
2019-04-16T15:52:58.881Z,12.73
2019-04-16T15:55:47.083Z,14.10
2019-04-16T15:58:32.348Z,20.33
2019-04-16T16:01:17.274Z,12.97
2019-04-16T16:04:08.761Z,11.17
2019-04-16T16:06:56.958Z,13.87
2019-04-16T16:09:58.908Z,13.13
2019-04-16T16:12:30.459Z,11.00
2019-04-16T16:14:59.802Z,12.87
2019-04-16T16:17:29.350Z,7.73
2019-04-16T16:19:58.961Z,10.77
2019-04-16T16:22:28.260Z,9.23
2019-04-16T16:24:57.600Z,11.90
2019-04-16T16:27:27.571Z,9.17
2019-04-16T16:29:57.314Z,9.40
2019-04-16T16:32:26.878Z,9.40
2019-04-16T16:34:57.436Z,9.73
2019-04-16T16:37:26.764Z,8.10
2019-04-16T16:39:56.720Z,5.37
2019-04-16T16:42:26.776Z,4.40
2019-04-16T16:44:58.265Z,5.87
2019-04-16T16:47:34.055Z,4.37
2019-04-16T16:50:07.327Z,12.00
2019-04-16T16:52:54.690Z,4.80
2019-04-16T16:55:42.896Z,5.07
2019-04-16T16:58:30.208Z,6.23
2019-04-16T17:01:16.597Z,2.70
2019-04-16T17:04:04.568Z,2.17
2019-04-16T17:06:33.908Z,2.13
2019-04-16T17:09:03.242Z,1.80
2019-04-16T17:11:32.543Z,3.00
2019-04-16T17:14:03.156Z,3.10
2019-04-16T17:16:32.961Z,3.30
2019-04-16T17:19:02.566Z,1.80
2019-04-16T17:21:31.923Z,2.70
2019-04-16T17:24:01.289Z,1.83
2019-04-16T17:26:30.917Z,2.97
2019-04-16T17:29:00.167Z,2.33
2019-04-16T17:31:29.475Z,2.80
2019-04-16T17:33:59.051Z,2.77
2019-04-16T17:36:28.563Z,2.83
2019-04-16T17:38:57.892Z,2.57
2019-04-16T17:41:32.599Z,1.23
2019-04-16T17:44:09.104Z,2.50
2019-04-16T17:46:56.262Z,1.20
2019-04-16T17:49:47.602Z,1.30
2019-04-16T17:52:33.491Z,1.83
2019-04-16T17:55:07.395Z,6.67
2019-04-16T17:57:42.823Z,2.77
2019-04-16T18:00:30.456Z,1.53
2019-04-16T18:03:18.834Z,4.93
2019-04-16T18:05:53.012Z,3.47
2019-04-16T18:08:35.030Z,4.57
2019-04-16T18:11:18.044Z,29.70
2019-04-16T18:13:51.995Z,3.43
2019-04-16T18:16:33.757Z,4.57
2019-04-16T18:19:24.771Z,4.60
2019-04-16T18:22:17.581Z,2.80
2019-04-16T18:25:21.315Z,2.20
2019-04-16T18:27:53.771Z,2.30
2019-04-16T18:30:44.947Z,2.53
2019-04-16T18:33:21.796Z,5.90
2019-04-16T18:36:04.071Z,2.43
2019-04-16T18:38:44.123Z,3.37
2019-04-16T18:41:38.249Z,4.60
2019-04-16T18:44:41.663Z,3.23
2019-04-16T18:47:32.824Z,7.23
2019-04-16T18:50:04.483Z,2.93
2019-04-16T18:52:36.629Z,4.93
2019-04-16T18:55:05.190Z,4.03
2019-04-16T18:57:38.384Z,2.90
2019-04-16T19:00:28.711Z,2.00
2019-04-16T19:02:58.527Z,5.97
2019-04-16T19:05:28.219Z,1.93
2019-04-16T19:08:00.193Z,4.03
2019-04-16T19:10:28.731Z,2.63
2019-04-16T19:12:58.402Z,3.73
2019-04-16T19:15:27.760Z,4.20
2019-04-16T19:17:57.026Z,7.23
2019-04-16T19:20:26.586Z,4.37
2019-04-16T19:22:56.314Z,6.53
2019-04-16T19:28:04.793Z,3.27
2019-04-16T19:30:32.836Z,3.87
2019-04-16T19:33:02.356Z,3.17
2019-04-16T19:35:31.647Z,4.20
2019-04-16T19:38:02.359Z,2.80
2019-04-16T19:40:32.252Z,2.67
2019-04-16T19:43:03.204Z,7.00
2019-04-16T19:45:33.239Z,1.87
2019-04-16T19:48:02.612Z,2.20
2019-04-16T19:50:36.198Z,6.37
2019-04-16T19:53:02.883Z,5.83
2019-04-16T19:55:32.169Z,2.53
2019-04-16T19:58:01.749Z,2.40
2019-04-16T20:00:31.389Z,2.70
2019-04-16T20:03:00.996Z,3.53
2019-04-16T20:05:30.608Z,3.83
2019-04-16T20:08:00.283Z,4.47
2019-04-16T20:10:29.794Z,3.10
2019-04-16T20:12:59.741Z,4.40
2019-04-16T20:15:29.862Z,3.27
2019-04-16T20:17:59.848Z,3.13
2019-04-16T20:20:29.124Z,3.63
2019-04-16T20:22:58.443Z,4.23
2019-04-16T20:25:27.713Z,3.90
2019-04-16T20:27:57.067Z,4.30
2019-04-16T20:30:26.848Z,5.17
2019-04-16T20:32:56.143Z,6.53
2019-04-16T20:35:26.786Z,5.77
2019-04-16T20:37:56.076Z,4.60
2019-04-16T20:40:25.457Z,6.37
2019-04-16T20:42:54.717Z,4.97
2019-04-16T20:45:24.386Z,5.40
2019-04-16T20:47:53.722Z,5.23
2019-04-16T20:50:22.980Z,3.87
2019-04-16T20:52:53.758Z,6.10
2019-04-16T20:55:23.211Z,7.40
2019-04-16T20:57:55.391Z,6.13
2019-04-16T21:00:31.866Z,3.80
2019-04-16T21:03:02.982Z,6.10
2019-04-16T21:05:35.803Z,7.37
2019-04-16T21:08:03.632Z,7.13
2019-04-16T21:10:35.633Z,9.93
2019-04-16T21:13:03.963Z,10.47
2019-04-16T21:15:33.577Z,7.30
2019-04-16T21:18:04.022Z,10.43
2019-04-16T21:20:33.324Z,5.97
2019-04-16T21:23:03.525Z,8.80
2019-04-16T21:25:33.297Z,8.97
2019-04-16T21:28:23.358Z,6.83
2019-04-16T21:30:57.745Z,11.10
2019-04-16T21:33:40.694Z,8.93
2019-04-16T21:36:11.312Z,6.80
2019-04-16T21:38:50.859Z,5.40
2019-04-16T21:41:25.594Z,7.63
2019-04-16T21:43:54.199Z,6.73
2019-04-16T21:46:23.453Z,4.90
2019-04-16T21:48:56.041Z,5.73
2019-04-16T21:51:25.392Z,6.00
2019-04-16T21:53:57.377Z,7.70
2019-04-16T21:56:26.039Z,4.67
2019-04-16T21:58:55.299Z,9.83
2019-04-16T22:01:49.662Z,7.23
2019-04-16T22:04:19.251Z,8.93
2019-04-16T22:06:49.101Z,8.37
2019-04-16T22:09:20.184Z,7.67
2019-04-16T22:11:49.499Z,6.43
2019-04-16T22:14:22.011Z,9.07
2019-04-16T22:16:50.378Z,8.07
2019-04-16T22:19:19.919Z,6.33
2019-04-16T22:21:49.904Z,8.93
2019-04-16T22:24:19.771Z,7.40
2019-04-16T22:26:50.279Z,6.40
2019-04-16T22:29:19.610Z,5.47
2019-04-16T22:31:49.151Z,5.10
2019-04-16T22:34:19.132Z,5.57
2019-04-16T22:36:48.454Z,5.30
2019-04-16T22:39:39.914Z,6.50
2019-04-16T22:42:26.418Z,4.57
2019-04-16T22:45:07.196Z,5.23
2019-04-16T22:47:36.852Z,5.07
2019-04-16T22:50:16.416Z,5.63
2019-04-16T22:52:37.554Z,4.27
2019-04-16T22:55:08.975Z,6.03
2019-04-16T22:57:38.296Z,4.67
2019-04-16T23:00:14.302Z,7.20
2019-04-16T23:02:47.798Z,4.43
2019-04-16T23:05:14.588Z,5.23
2019-04-16T23:07:44.103Z,4.63
2019-04-16T23:10:13.619Z,4.57
2019-04-16T23:12:43.216Z,5.73
2019-04-16T23:15:15.472Z,4.00
2019-04-16T23:17:46.019Z,4.33
2019-04-16T23:20:28.514Z,4.87
2019-04-16T23:22:47.668Z,3.90
2019-04-16T23:25:17.374Z,5.03
2019-04-16T23:27:46.611Z,3.70
2019-04-16T23:30:18.501Z,7.67
2019-04-16T23:32:47.566Z,5.73
2019-04-16T23:35:17.177Z,4.57
2019-04-16T23:37:46.448Z,3.70
2019-04-16T23:40:15.967Z,5.47
2019-04-16T23:42:58.983Z,5.87
2019-04-16T23:45:46.654Z,3.90
2019-04-16T23:48:35.361Z,3.60
2019-04-16T23:51:18.071Z,7.03
2019-04-16T23:53:55.590Z,3.67
2019-04-16T23:56:52.966Z,4.43
2019-04-16T23:59:28.730Z,4.27
